sensor_id;sensor_type;location;lat;lon;timestamp;P1;durP1;ratioP1;P2;durP2;ratioP2
63018;SDS011;49105;46.046;10.760;2023-04-03T00:00:13;1.90;;;1.90;;
63018;SDS011;49105;46.046;10.760;2023-04-03T00:02:46;2.03;;;2.03;;
63018;SDS011;49105;46.046;10.760;2023-04-03T00:05:17;2.00;;;2.00;;
63018;SDS011;49105;46.046;10.760;2023-04-03T00:07:43;2.00;;;2.00;;
63018;SDS011;49105;46.046;10.760;2023-04-03T00:10:08;2.10;;;2.10;;
63018;SDS011;49105;46.046;10.760;2023-04-03T00:12:35;2.30;;;2.30;;
63018;SDS011;49105;46.046;10.760;2023-04-03T00:15:00;2.05;;;2.05;;
63018;SDS011;49105;46.046;10.760;2023-04-03T00:17:26;1.90;;;1.90;;
63018;SDS011;49105;46.046;10.760;2023-04-03T00:19:51;2.33;;;2.33;;
63018;SDS011;49105;46.046;10.760;2023-04-03T00:22:26;1.98;;;1.98;;
63018;SDS011;49105;46.046;10.760;2023-04-03T00:24:59;1.80;;;1.80;;
63018;SDS011;49105;46.046;10.760;2023-04-03T00:27:31;2.00;;;2.00;;
63018;SDS011;49105;46.046;10.760;2023-04-03T00:29:56;1.70;;;1.70;;
63018;SDS011;49105;46.046;10.760;2023-04-03T00:32:22;1.80;;;1.80;;
63018;SDS011;49105;46.046;10.760;2023-04-03T00:34:47;1.98;;;1.98;;
63018;SDS011;49105;46.046;10.760;2023-04-03T00:37:17;1.70;;;1.70;;
63018;SDS011;49105;46.046;10.760;2023-04-03T00:39:42;2.08;;;2.08;;
63018;SDS011;49105;46.046;10.760;2023-04-03T00:42:08;1.60;;;1.60;;
63018;SDS011;49105;46.046;10.760;2023-04-03T00:47:11;2.35;;;2.35;;
63018;SDS011;49105;46.046;10.760;2023-04-03T00:49:46;2.00;;;2.00;;
63018;SDS011;49105;46.046;10.760;2023-04-03T00:52:22;2.08;;;2.08;;
63018;SDS011;49105;46.046;10.760;2023-04-03T00:54:53;2.00;;;2.00;;
63018;SDS011;49105;46.046;10.760;2023-04-03T00:57:31;2.00;;;2.00;;
63018;SDS011;49105;46.046;10.760;2023-04-03T01:00:08;1.60;;;1.60;;
63018;SDS011;49105;46.046;10.760;2023-04-03T01:02:39;1.60;;;1.60;;
63018;SDS011;49105;46.046;10.760;2023-04-03T01:08:27;1.60;;;1.60;;
63018;SDS011;49105;46.046;10.760;2023-04-03T01:10:53;1.80;;;1.80;;
63018;SDS011;49105;46.046;10.760;2023-04-03T01:13:32;2.00;;;2.00;;
63018;SDS011;49105;46.046;10.760;2023-04-03T01:16:04;2.22;;;2.22;;
63018;SDS011;49105;46.046;10.760;2023-04-03T01:18:37;2.00;;;2.00;;
63018;SDS011;49105;46.046;10.760;2023-04-03T01:23:57;2.10;;;2.10;;
63018;SDS011;49105;46.046;10.760;2023-04-03T01:26:27;2.45;;;2.40;;
63018;SDS011;49105;46.046;10.760;2023-04-03T01:34:33;2.00;;;2.00;;
63018;SDS011;49105;46.046;10.760;2023-04-03T01:37:04;1.75;;;1.75;;
63018;SDS011;49105;46.046;10.760;2023-04-03T01:39:36;2.05;;;2.05;;
63018;SDS011;49105;46.046;10.760;2023-04-03T01:44:37;1.70;;;1.70;;
63018;SDS011;49105;46.046;10.760;2023-04-03T01:47:12;1.70;;;1.70;;
63018;SDS011;49105;46.046;10.760;2023-04-03T01:49:43;1.70;;;1.70;;
63018;SDS011;49105;46.046;10.760;2023-04-03T01:54:43;2.30;;;2.30;;
63018;SDS011;49105;46.046;10.760;2023-04-03T01:57:09;2.58;;;2.58;;
63018;SDS011;49105;46.046;10.760;2023-04-03T01:59:44;2.03;;;2.03;;
63018;SDS011;49105;46.046;10.760;2023-04-03T02:02:16;1.90;;;1.90;;
63018;SDS011;49105;46.046;10.760;2023-04-03T02:07:16;1.88;;;1.88;;
63018;SDS011;49105;46.046;10.760;2023-04-03T02:09:41;2.42;;;2.33;;
63018;SDS011;49105;46.046;10.760;2023-04-03T02:12:19;2.05;;;2.05;;
63018;SDS011;49105;46.046;10.760;2023-04-03T02:14:51;1.80;;;1.80;;
63018;SDS011;49105;46.046;10.760;2023-04-03T02:17:22;2.10;;;2.10;;
63018;SDS011;49105;46.046;10.760;2023-04-03T02:19:48;2.10;;;2.10;;
63018;SDS011;49105;46.046;10.760;2023-04-03T02:22:19;2.10;;;2.10;;
63018;SDS011;49105;46.046;10.760;2023-04-03T02:24:57;2.10;;;2.10;;
63018;SDS011;49105;46.046;10.760;2023-04-03T02:27:28;2.60;;;2.55;;
63018;SDS011;49105;46.046;10.760;2023-04-03T02:29:54;2.80;;;2.70;;
63018;SDS011;49105;46.046;10.760;2023-04-03T02:32:32;2.22;;;2.22;;
63018;SDS011;49105;46.046;10.760;2023-04-03T02:35:07;3.03;;;2.92;;
63018;SDS011;49105;46.046;10.760;2023-04-03T02:37:33;2.80;;;2.70;;
63018;SDS011;49105;46.046;10.760;2023-04-03T02:40:08;2.80;;;2.70;;
63018;SDS011;49105;46.046;10.760;2023-04-03T02:45:55;2.58;;;2.58;;
63018;SDS011;49105;46.046;10.760;2023-04-03T02:48:33;2.38;;;2.38;;
63018;SDS011;49105;46.046;10.760;2023-04-03T02:51:05;2.00;;;2.00;;
63018;SDS011;49105;46.046;10.760;2023-04-03T02:53:39;2.50;;;2.50;;
63018;SDS011;49105;46.046;10.760;2023-04-03T02:56:11;2.80;;;2.70;;
63018;SDS011;49105;46.046;10.760;2023-04-03T02:58:43;3.20;;;3.10;;
63018;SDS011;49105;46.046;10.760;2023-04-03T03:01:18;2.50;;;2.50;;
63018;SDS011;49105;46.046;10.760;2023-04-03T03:03:50;2.20;;;2.20;;
63018;SDS011;49105;46.046;10.760;2023-04-03T03:06:16;2.55;;;2.55;;
63018;SDS011;49105;46.046;10.760;2023-04-03T03:08:43;2.45;;;2.45;;
63018;SDS011;49105;46.046;10.760;2023-04-03T03:11:15;1.80;;;1.80;;
63018;SDS011;49105;46.046;10.760;2023-04-03T03:16:06;2.47;;;2.47;;
63018;SDS011;49105;46.046;10.760;2023-04-03T03:18:32;2.75;;;2.65;;
63018;SDS011;49105;46.046;10.760;2023-04-03T03:20:59;2.85;;;2.75;;
63018;SDS011;49105;46.046;10.760;2023-04-03T03:23:29;3.05;;;2.95;;
63018;SDS011;49105;46.046;10.760;2023-04-03T03:26:07;2.40;;;2.40;;
63018;SDS011;49105;46.046;10.760;2023-04-03T03:28:40;3.40;;;3.30;;
63018;SDS011;49105;46.046;10.760;2023-04-03T03:31:09;3.03;;;2.92;;
63018;SDS011;49105;46.046;10.760;2023-04-03T03:33:35;2.80;;;2.70;;
63018;SDS011;49105;46.046;10.760;2023-04-03T03:36:00;3.15;;;3.05;;
63018;SDS011;49105;46.046;10.760;2023-04-03T03:38:29;2.85;;;2.75;;
63018;SDS011;49105;46.046;10.760;2023-04-03T03:41:04;2.97;;;2.88;;
63018;SDS011;49105;46.046;10.760;2023-04-03T03:43:29;2.80;;;2.70;;
63018;SDS011;49105;46.046;10.760;2023-04-03T03:45:59;2.38;;;2.38;;
63018;SDS011;49105;46.046;10.760;2023-04-03T03:48:31;2.60;;;2.60;;
63018;SDS011;49105;46.046;10.760;2023-04-03T03:51:05;2.58;;;2.58;;
63018;SDS011;49105;46.046;10.760;2023-04-03T03:53:31;2.50;;;2.50;;
63018;SDS011;49105;46.046;10.760;2023-04-03T03:56:03;2.83;;;2.72;;
63018;SDS011;49105;46.046;10.760;2023-04-03T03:58:29;2.85;;;2.75;;
63018;SDS011;49105;46.046;10.760;2023-04-03T04:01:04;2.20;;;2.10;;
63018;SDS011;49105;46.046;10.760;2023-04-03T04:03:37;2.03;;;2.03;;
63018;SDS011;49105;46.046;10.760;2023-04-03T04:06:09;1.90;;;1.90;;
63018;SDS011;49105;46.046;10.760;2023-04-03T04:08:41;2.15;;;2.15;;
63018;SDS011;49105;46.046;10.760;2023-04-03T04:11:16;1.95;;;1.95;;
63018;SDS011;49105;46.046;10.760;2023-04-03T04:13:42;2.10;;;2.10;;
63018;SDS011;49105;46.046;10.760;2023-04-03T04:16:13;2.70;;;2.60;;
63018;SDS011;49105;46.046;10.760;2023-04-03T04:22:06;4.37;;;4.17;;
63018;SDS011;49105;46.046;10.760;2023-04-03T04:24:32;2.20;;;2.20;;
63018;SDS011;49105;46.046;10.760;2023-04-03T04:27:06;2.58;;;2.58;;
63018;SDS011;49105;46.046;10.760;2023-04-03T04:29:35;3.00;;;2.90;;
63018;SDS011;49105;46.046;10.760;2023-04-03T04:32:02;2.70;;;2.63;;
63018;SDS011;49105;46.046;10.760;2023-04-03T04:34:29;3.20;;;3.10;;
63018;SDS011;49105;46.046;10.760;2023-04-03T04:37:03;2.95;;;2.85;;
63018;SDS011;49105;46.046;10.760;2023-04-03T04:39:32;2.53;;;2.53;;
63018;SDS011;49105;46.046;10.760;2023-04-03T04:41:57;2.20;;;2.20;;
63018;SDS011;49105;46.046;10.760;2023-04-03T04:44:24;2.70;;;2.60;;
63018;SDS011;49105;46.046;10.760;2023-04-03T04:46:52;2.20;;;2.20;;
63018;SDS011;49105;46.046;10.760;2023-04-03T04:49:18;2.50;;;2.50;;
63018;SDS011;49105;46.046;10.760;2023-04-03T04:51:53;2.38;;;2.38;;
63018;SDS011;49105;46.046;10.760;2023-04-03T04:54:30;2.53;;;2.53;;
63018;SDS011;49105;46.046;10.760;2023-04-03T04:57:05;3.10;;;3.00;;
63018;SDS011;49105;46.046;10.760;2023-04-03T04:59:31;2.22;;;2.22;;
63018;SDS011;49105;46.046;10.760;2023-04-03T05:01:56;2.78;;;2.70;;
63018;SDS011;49105;46.046;10.760;2023-04-03T05:04:22;2.92;;;2.83;;
63018;SDS011;49105;46.046;10.760;2023-04-03T05:06:56;2.97;;;2.88;;
63018;SDS011;49105;46.046;10.760;2023-04-03T05:09:21;2.83;;;2.72;;
63018;SDS011;49105;46.046;10.760;2023-04-03T05:11:53;2.80;;;2.70;;
63018;SDS011;49105;46.046;10.760;2023-04-03T05:14:28;2.95;;;2.85;;
63018;SDS011;49105;46.046;10.760;2023-04-03T05:16:58;3.55;;;3.45;;
63018;SDS011;49105;46.046;10.760;2023-04-03T05:19:29;2.80;;;2.70;;
63018;SDS011;49105;46.046;10.760;2023-04-03T05:22:04;2.08;;;2.08;;
63018;SDS011;49105;46.046;10.760;2023-04-03T05:24:29;2.38;;;2.38;;
63018;SDS011;49105;46.046;10.760;2023-04-03T05:27:01;3.10;;;2.55;;
63018;SDS011;49105;46.046;10.760;2023-04-03T05:29:26;2.30;;;2.30;;
63018;SDS011;49105;46.046;10.760;2023-04-03T05:31:55;2.75;;;2.65;;
63018;SDS011;49105;46.046;10.760;2023-04-03T05:34:20;2.78;;;2.67;;
63018;SDS011;49105;46.046;10.760;2023-04-03T05:36:55;2.25;;;2.25;;
63018;SDS011;49105;46.046;10.760;2023-04-03T05:39:30;7.60;;;3.00;;
63018;SDS011;49105;46.046;10.760;2023-04-03T05:41:56;2.33;;;2.33;;
63018;SDS011;49105;46.046;10.760;2023-04-03T05:44:22;2.50;;;2.50;;
63018;SDS011;49105;46.046;10.760;2023-04-03T05:46:51;2.92;;;2.83;;
63018;SDS011;49105;46.046;10.760;2023-04-03T05:49:17;2.30;;;2.30;;
63018;SDS011;49105;46.046;10.760;2023-04-03T05:51:43;2.40;;;2.40;;
63018;SDS011;49105;46.046;10.760;2023-04-03T05:54:21;2.60;;;2.40;;
63018;SDS011;49105;46.046;10.760;2023-04-03T05:56:57;2.70;;;2.60;;
63018;SDS011;49105;46.046;10.760;2023-04-03T05:59:32;2.33;;;2.25;;
63018;SDS011;49105;46.046;10.760;2023-04-03T06:01:57;2.13;;;2.13;;
63018;SDS011;49105;46.046;10.760;2023-04-03T06:04:29;2.33;;;2.22;;
63018;SDS011;49105;46.046;10.760;2023-04-03T06:07:00;2.10;;;2.10;;
63018;SDS011;49105;46.046;10.760;2023-04-03T06:09:38;2.00;;;2.00;;
63018;SDS011;49105;46.046;10.760;2023-04-03T06:12:11;1.75;;;1.75;;
63018;SDS011;49105;46.046;10.760;2023-04-03T06:17:05;2.00;;;2.00;;
63018;SDS011;49105;46.046;10.760;2023-04-03T06:19:37;1.88;;;1.88;;
63018;SDS011;49105;46.046;10.760;2023-04-03T06:22:12;2.25;;;2.25;;
63018;SDS011;49105;46.046;10.760;2023-04-03T06:24:44;2.55;;;2.55;;
63018;SDS011;49105;46.046;10.760;2023-04-03T06:27:14;2.25;;;2.15;;
63018;SDS011;49105;46.046;10.760;2023-04-03T06:29:45;4.50;;;3.05;;
63018;SDS011;49105;46.046;10.760;2023-04-03T06:32:17;1.77;;;1.77;;
63018;SDS011;49105;46.046;10.760;2023-04-03T06:34:42;1.90;;;1.90;;
63018;SDS011;49105;46.046;10.760;2023-04-03T06:37:17;2.10;;;2.10;;
63018;SDS011;49105;46.046;10.760;2023-04-03T06:39:55;3.33;;;3.17;;
63018;SDS011;49105;46.046;10.760;2023-04-03T06:42:21;2.88;;;2.72;;
63018;SDS011;49105;46.046;10.760;2023-04-03T06:44:52;2.53;;;2.42;;
63018;SDS011;49105;46.046;10.760;2023-04-03T06:47:18;2.28;;;2.28;;
63018;SDS011;49105;46.046;10.760;2023-04-03T06:49:49;1.80;;;1.80;;
63018;SDS011;49105;46.046;10.760;2023-04-03T06:52:15;2.00;;;2.00;;
63018;SDS011;49105;46.046;10.760;2023-04-03T06:54:41;2.58;;;2.58;;
63018;SDS011;49105;46.046;10.760;2023-04-03T06:57:15;3.10;;;3.03;;
63018;SDS011;49105;46.046;10.760;2023-04-03T06:59:47;2.20;;;2.20;;
63018;SDS011;49105;46.046;10.760;2023-04-03T07:02:22;2.08;;;2.08;;
63018;SDS011;49105;46.046;10.760;2023-04-03T07:04:51;2.15;;;2.15;;
63018;SDS011;49105;46.046;10.760;2023-04-03T07:07:21;1.90;;;1.90;;
63018;SDS011;49105;46.046;10.760;2023-04-03T07:09:47;1.73;;;1.73;;
63018;SDS011;49105;46.046;10.760;2023-04-03T07:12:16;1.80;;;1.80;;
63018;SDS011;49105;46.046;10.760;2023-04-03T07:14:41;1.80;;;1.80;;
63018;SDS011;49105;46.046;10.760;2023-04-03T07:17:07;1.77;;;1.77;;
63018;SDS011;49105;46.046;10.760;2023-04-03T07:19:33;1.67;;;1.67;;
63018;SDS011;49105;46.046;10.760;2023-04-03T07:22:07;1.63;;;1.52;;
63018;SDS011;49105;46.046;10.760;2023-04-03T07:24:33;1.55;;;1.55;;
63018;SDS011;49105;46.046;10.760;2023-04-03T07:27:08;1.70;;;1.70;;
63018;SDS011;49105;46.046;10.760;2023-04-03T07:29:44;1.35;;;1.35;;
63018;SDS011;49105;46.046;10.760;2023-04-03T07:35:31;2.00;;;2.00;;
63018;SDS011;49105;46.046;10.760;2023-04-03T07:37:56;1.67;;;1.67;;
63018;SDS011;49105;46.046;10.760;2023-04-03T07:40:34;1.40;;;1.40;;
63018;SDS011;49105;46.046;10.760;2023-04-03T07:43:07;1.67;;;1.67;;
63018;SDS011;49105;46.046;10.760;2023-04-03T07:45:36;1.60;;;1.60;;
63018;SDS011;49105;46.046;10.760;2023-04-03T07:48:01;1.48;;;1.48;;
63018;SDS011;49105;46.046;10.760;2023-04-03T07:50:30;1.60;;;1.60;;
63018;SDS011;49105;46.046;10.760;2023-04-03T07:52:56;1.60;;;1.60;;
63018;SDS011;49105;46.046;10.760;2023-04-03T07:55:25;1.50;;;1.50;;
63018;SDS011;49105;46.046;10.760;2023-04-03T07:57:51;1.50;;;1.50;;
63018;SDS011;49105;46.046;10.760;2023-04-03T08:00:26;1.60;;;1.60;;
63018;SDS011;49105;46.046;10.760;2023-04-03T08:05:29;1.70;;;1.70;;
63018;SDS011;49105;46.046;10.760;2023-04-03T08:10:30;1.70;;;1.70;;
63018;SDS011;49105;46.046;10.760;2023-04-03T08:12:56;1.17;;;1.17;;
63018;SDS011;49105;46.046;10.760;2023-04-03T08:15:22;1.40;;;1.40;;
63018;SDS011;49105;46.046;10.760;2023-04-03T08:17:48;1.40;;;1.40;;
63018;SDS011;49105;46.046;10.760;2023-04-03T08:20:19;1.35;;;1.35;;
63018;SDS011;49105;46.046;10.760;2023-04-03T08:25:17;1.40;;;1.40;;
63018;SDS011;49105;46.046;10.760;2023-04-03T08:27:52;1.40;;;1.40;;
63018;SDS011;49105;46.046;10.760;2023-04-03T08:30:24;1.50;;;1.50;;
63018;SDS011;49105;46.046;10.760;2023-04-03T08:32:50;1.30;;;1.30;;
63018;SDS011;49105;46.046;10.760;2023-04-03T08:35:25;1.70;;;1.70;;
63018;SDS011;49105;46.046;10.760;2023-04-03T08:37:56;1.77;;;1.77;;
63018;SDS011;49105;46.046;10.760;2023-04-03T08:40:28;1.80;;;1.80;;
63018;SDS011;49105;46.046;10.760;2023-04-03T08:45:50;1.85;;;1.85;;
63018;SDS011;49105;46.046;10.760;2023-04-03T08:48:31;2.03;;;2.03;;
63018;SDS011;49105;46.046;10.760;2023-04-03T08:51:19;1.92;;;1.92;;
63018;SDS011;49105;46.046;10.760;2023-04-03T08:53:50;1.90;;;1.90;;
63018;SDS011;49105;46.046;10.760;2023-04-03T08:56:27;2.03;;;2.03;;
63018;SDS011;49105;46.046;10.760;2023-04-03T08:58:55;2.00;;;2.00;;
63018;SDS011;49105;46.046;10.760;2023-04-03T09:01:42;2.00;;;2.00;;
63018;SDS011;49105;46.046;10.760;2023-04-03T09:04:16;1.90;;;1.90;;
63018;SDS011;49105;46.046;10.760;2023-04-03T09:06:42;1.90;;;1.90;;
63018;SDS011;49105;46.046;10.760;2023-04-03T09:12:06;1.80;;;1.80;;
63018;SDS011;49105;46.046;10.760;2023-04-03T09:14:52;1.90;;;1.90;;
63018;SDS011;49105;46.046;10.760;2023-04-03T09:17:41;2.17;;;2.17;;
63018;SDS011;49105;46.046;10.760;2023-04-03T09:20:25;2.35;;;2.25;;
63018;SDS011;49105;46.046;10.760;2023-04-03T09:26:11;2.00;;;2.00;;
63018;SDS011;49105;46.046;10.760;2023-04-03T09:28:41;1.60;;;1.60;;
63018;SDS011;49105;46.046;10.760;2023-04-03T09:31:18;1.60;;;1.60;;
63018;SDS011;49105;46.046;10.760;2023-04-03T09:33:58;1.70;;;1.70;;
63018;SDS011;49105;46.046;10.760;2023-04-03T09:39:31;1.67;;;1.67;;
63018;SDS011;49105;46.046;10.760;2023-04-03T09:42:15;1.70;;;1.70;;
63018;SDS011;49105;46.046;10.760;2023-04-03T09:44:42;1.88;;;1.88;;
63018;SDS011;49105;46.046;10.760;2023-04-03T09:47:26;1.80;;;1.80;;
63018;SDS011;49105;46.046;10.760;2023-04-03T09:52:40;2.00;;;2.00;;
63018;SDS011;49105;46.046;10.760;2023-04-03T09:55:14;1.80;;;1.80;;
63018;SDS011;49105;46.046;10.760;2023-04-03T09:57:40;1.50;;;1.50;;
63018;SDS011;49105;46.046;10.760;2023-04-03T10:00:23;1.90;;;1.90;;
63018;SDS011;49105;46.046;10.760;2023-04-03T10:02:58;2.03;;;1.92;;
63018;SDS011;49105;46.046;10.760;2023-04-03T10:08:10;1.60;;;1.60;;
63018;SDS011;49105;46.046;10.760;2023-04-03T10:10:43;1.67;;;1.67;;
63018;SDS011;49105;46.046;10.760;2023-04-03T10:13:17;1.55;;;1.55;;
63018;SDS011;49105;46.046;10.760;2023-04-03T10:16:05;1.85;;;1.85;;
63018;SDS011;49105;46.046;10.760;2023-04-03T10:18:46;1.80;;;1.80;;
63018;SDS011;49105;46.046;10.760;2023-04-03T10:21:28;1.90;;;1.90;;
63018;SDS011;49105;46.046;10.760;2023-04-03T10:26:48;2.00;;;2.00;;
63018;SDS011;49105;46.046;10.760;2023-04-03T10:35:18;2.22;;;2.22;;
63018;SDS011;49105;46.046;10.760;2023-04-03T10:40:52;2.28;;;2.17;;
63018;SDS011;49105;46.046;10.760;2023-04-03T10:47:02;2.00;;;2.00;;
63018;SDS011;49105;46.046;10.760;2023-04-03T10:50:36;1.70;;;1.70;;
63018;SDS011;49105;46.046;10.760;2023-04-03T10:52:48;1.90;;;1.90;;
63018;SDS011;49105;46.046;10.760;2023-04-03T10:56:01;1.80;;;1.80;;
63018;SDS011;49105;46.046;10.760;2023-04-03T10:58:43;1.95;;;1.95;;
63018;SDS011;49105;46.046;10.760;2023-04-03T11:01:17;2.17;;;2.17;;
63018;SDS011;49105;46.046;10.760;2023-04-03T11:03:56;2.20;;;2.20;;
63018;SDS011;49105;46.046;10.760;2023-04-03T11:06:41;2.10;;;2.10;;
63018;SDS011;49105;46.046;10.760;2023-04-03T11:09:25;2.10;;;2.10;;
63018;SDS011;49105;46.046;10.760;2023-04-03T11:14:54;2.20;;;2.20;;
63018;SDS011;49105;46.046;10.760;2023-04-03T11:17:26;1.98;;;1.98;;
63018;SDS011;49105;46.046;10.760;2023-04-03T11:22:50;2.00;;;2.00;;
63018;SDS011;49105;46.046;10.760;2023-04-03T11:25:20;1.90;;;1.90;;
63018;SDS011;49105;46.046;10.760;2023-04-03T11:28:03;2.10;;;2.10;;
63018;SDS011;49105;46.046;10.760;2023-04-03T11:30:42;2.20;;;2.20;;
63018;SDS011;49105;46.046;10.760;2023-04-03T11:38:14;1.70;;;1.70;;
63018;SDS011;49105;46.046;10.760;2023-04-03T11:40:51;1.88;;;1.88;;
63018;SDS011;49105;46.046;10.760;2023-04-03T11:43:27;1.70;;;1.70;;
63018;SDS011;49105;46.046;10.760;2023-04-03T11:48:43;1.85;;;1.85;;
63018;SDS011;49105;46.046;10.760;2023-04-03T12:04:23;1.90;;;1.90;;
63018;SDS011;49105;46.046;10.760;2023-04-03T12:06:52;2.10;;;2.10;;
63018;SDS011;49105;46.046;10.760;2023-04-03T12:09:32;2.08;;;2.08;;
63018;SDS011;49105;46.046;10.760;2023-04-03T12:15:25;2.10;;;2.10;;
63018;SDS011;49105;46.046;10.760;2023-04-03T12:24:35;2.10;;;2.10;;
63018;SDS011;49105;46.046;10.760;2023-04-03T12:27:23;2.30;;;2.30;;
63018;SDS011;49105;46.046;10.760;2023-04-03T12:29:59;2.25;;;2.25;;
63018;SDS011;49105;46.046;10.760;2023-04-03T12:46:04;2.05;;;2.05;;
63018;SDS011;49105;46.046;10.760;2023-04-03T12:48:56;1.83;;;1.83;;
63018;SDS011;49105;46.046;10.760;2023-04-03T12:51:37;1.80;;;1.80;;
63018;SDS011;49105;46.046;10.760;2023-04-03T12:54:15;1.80;;;1.80;;
63018;SDS011;49105;46.046;10.760;2023-04-03T12:59:47;3.40;;;3.20;;
63018;SDS011;49105;46.046;10.760;2023-04-03T13:02:28;2.00;;;2.00;;
63018;SDS011;49105;46.046;10.760;2023-04-03T13:05:08;2.10;;;2.10;;
63018;SDS011;49105;46.046;10.760;2023-04-03T13:07:40;1.80;;;1.80;;
63018;SDS011;49105;46.046;10.760;2023-04-03T13:10:15;1.90;;;1.90;;
63018;SDS011;49105;46.046;10.760;2023-04-03T13:12:55;4.18;;;1.95;;
63018;SDS011;49105;46.046;10.760;2023-04-03T13:15:43;2.17;;;2.17;;
63018;SDS011;49105;46.046;10.760;2023-04-03T13:18:27;1.90;;;1.90;;
63018;SDS011;49105;46.046;10.760;2023-04-03T13:21:06;1.90;;;1.90;;
63018;SDS011;49105;46.046;10.760;2023-04-03T13:23:48;2.08;;;2.08;;
63018;SDS011;49105;46.046;10.760;2023-04-03T13:26:26;2.22;;;2.13;;
63018;SDS011;49105;46.046;10.760;2023-04-03T13:28:54;2.10;;;2.10;;
63018;SDS011;49105;46.046;10.760;2023-04-03T13:31:30;2.10;;;2.10;;
63018;SDS011;49105;46.046;10.760;2023-04-03T13:34:13;1.80;;;1.80;;
63018;SDS011;49105;46.046;10.760;2023-04-03T13:37:00;1.90;;;1.90;;
63018;SDS011;49105;46.046;10.760;2023-04-03T13:39:41;2.10;;;2.10;;
63018;SDS011;49105;46.046;10.760;2023-04-03T13:42:16;3.20;;;3.00;;
63018;SDS011;49105;46.046;10.760;2023-04-03T13:47:50;1.90;;;1.90;;
63018;SDS011;49105;46.046;10.760;2023-04-03T13:53:08;1.70;;;1.70;;
63018;SDS011;49105;46.046;10.760;2023-04-03T13:55:52;1.98;;;1.98;;
63018;SDS011;49105;46.046;10.760;2023-04-03T13:58:25;1.90;;;1.90;;
63018;SDS011;49105;46.046;10.760;2023-04-03T14:00:53;2.72;;;2.53;;
63018;SDS011;49105;46.046;10.760;2023-04-03T14:03:25;2.25;;;2.25;;
63018;SDS011;49105;46.046;10.760;2023-04-03T14:05:58;2.00;;;2.00;;
63018;SDS011;49105;46.046;10.760;2023-04-03T14:08:26;2.67;;;2.58;;
63018;SDS011;49105;46.046;10.760;2023-04-03T14:10:52;2.00;;;2.00;;
63018;SDS011;49105;46.046;10.760;2023-04-03T14:13:29;2.20;;;2.13;;
63018;SDS011;49105;46.046;10.760;2023-04-03T14:15:55;2.00;;;2.00;;
63018;SDS011;49105;46.046;10.760;2023-04-03T14:18:20;1.80;;;1.80;;
63018;SDS011;49105;46.046;10.760;2023-04-03T14:20:52;2.00;;;2.00;;
63018;SDS011;49105;46.046;10.760;2023-04-03T14:23:17;1.92;;;1.92;;
63018;SDS011;49105;46.046;10.760;2023-04-03T14:25:43;2.50;;;2.40;;
63018;SDS011;49105;46.046;10.760;2023-04-03T14:28:19;1.55;;;1.55;;
63018;SDS011;49105;46.046;10.760;2023-04-03T14:30:55;1.77;;;1.77;;
63018;SDS011;49105;46.046;10.760;2023-04-03T14:33:33;1.70;;;1.70;;
63018;SDS011;49105;46.046;10.760;2023-04-03T14:36:16;1.85;;;1.85;;
63018;SDS011;49105;46.046;10.760;2023-04-03T14:38:56;1.90;;;1.90;;
63018;SDS011;49105;46.046;10.760;2023-04-03T14:41:31;1.92;;;1.92;;
63018;SDS011;49105;46.046;10.760;2023-04-03T14:44:01;1.90;;;1.90;;
63018;SDS011;49105;46.046;10.760;2023-04-03T14:50:04;1.80;;;1.80;;
63018;SDS011;49105;46.046;10.760;2023-04-03T14:51:58;2.25;;;2.25;;
63018;SDS011;49105;46.046;10.760;2023-04-03T14:54:23;1.70;;;1.70;;
63018;SDS011;49105;46.046;10.760;2023-04-03T14:56:59;2.00;;;1.90;;
63018;SDS011;49105;46.046;10.760;2023-04-03T14:59:26;2.25;;;2.25;;
63018;SDS011;49105;46.046;10.760;2023-04-03T15:01:53;2.03;;;2.03;;
63018;SDS011;49105;46.046;10.760;2023-04-03T15:04:21;2.28;;;2.17;;
63018;SDS011;49105;46.046;10.760;2023-04-03T15:06:53;2.38;;;2.28;;
63018;SDS011;49105;46.046;10.760;2023-04-03T15:11:53;2.15;;;2.15;;
63018;SDS011;49105;46.046;10.760;2023-04-03T15:14:20;2.08;;;2.08;;
63018;SDS011;49105;46.046;10.760;2023-04-03T15:16:45;2.70;;;2.60;;
63018;SDS011;49105;46.046;10.760;2023-04-03T15:19:12;2.75;;;2.65;;
63018;SDS011;49105;46.046;10.760;2023-04-03T15:21:38;2.50;;;2.40;;
63018;SDS011;49105;46.046;10.760;2023-04-03T15:24:04;3.10;;;2.05;;
63018;SDS011;49105;46.046;10.760;2023-04-03T15:26:30;2.42;;;2.33;;
63018;SDS011;49105;46.046;10.760;2023-04-03T15:28:56;2.13;;;2.05;;
63018;SDS011;49105;46.046;10.760;2023-04-03T15:31:28;2.10;;;2.00;;
63018;SDS011;49105;46.046;10.760;2023-04-03T15:37:09;2.13;;;2.13;;
63018;SDS011;49105;46.046;10.760;2023-04-03T15:39:40;1.90;;;1.90;;
63018;SDS011;49105;46.046;10.760;2023-04-03T15:42:12;2.00;;;2.00;;
63018;SDS011;49105;46.046;10.760;2023-04-03T15:44:38;2.63;;;2.53;;
63018;SDS011;49105;46.046;10.760;2023-04-03T15:47:03;1.75;;;1.75;;
63018;SDS011;49105;46.046;10.760;2023-04-03T15:49:38;2.00;;;2.00;;
63018;SDS011;49105;46.046;10.760;2023-04-03T15:52:04;2.00;;;2.00;;
63018;SDS011;49105;46.046;10.760;2023-04-03T15:54:30;2.00;;;2.00;;
63018;SDS011;49105;46.046;10.760;2023-04-03T15:57:01;1.90;;;1.90;;
63018;SDS011;49105;46.046;10.760;2023-04-03T15:59:27;2.13;;;2.13;;
63018;SDS011;49105;46.046;10.760;2023-04-03T16:01:55;1.80;;;1.80;;
63018;SDS011;49105;46.046;10.760;2023-04-03T16:04:21;3.05;;;2.95;;
63018;SDS011;49105;46.046;10.760;2023-04-03T16:06:56;2.20;;;2.10;;
63018;SDS011;49105;46.046;10.760;2023-04-03T16:09:30;1.75;;;1.75;;
63018;SDS011;49105;46.046;10.760;2023-04-03T16:11:57;1.90;;;1.80;;
63018;SDS011;49105;46.046;10.760;2023-04-03T16:14:23;2.05;;;2.05;;
63018;SDS011;49105;46.046;10.760;2023-04-03T16:16:48;1.88;;;1.88;;
63018;SDS011;49105;46.046;10.760;2023-04-03T16:19:20;2.17;;;2.17;;
63018;SDS011;49105;46.046;10.760;2023-04-03T16:21:53;1.77;;;1.77;;
63018;SDS011;49105;46.046;10.760;2023-04-03T16:24:22;2.53;;;2.42;;
63018;SDS011;49105;46.046;10.760;2023-04-03T16:27:00;2.38;;;2.30;;
63018;SDS011;49105;46.046;10.760;2023-04-03T16:29:28;2.55;;;2.45;;
63018;SDS011;49105;46.046;10.760;2023-04-03T16:32:03;2.75;;;2.65;;
63018;SDS011;49105;46.046;10.760;2023-04-03T16:34:32;1.70;;;1.70;;
63018;SDS011;49105;46.046;10.760;2023-04-03T16:37:06;1.77;;;1.77;;
63018;SDS011;49105;46.046;10.760;2023-04-03T16:39:33;5.18;;;2.35;;
63018;SDS011;49105;46.046;10.760;2023-04-03T16:42:09;1.98;;;1.98;;
63018;SDS011;49105;46.046;10.760;2023-04-03T16:44:44;2.47;;;2.38;;
63018;SDS011;49105;46.046;10.760;2023-04-03T16:47:18;1.98;;;1.98;;
63018;SDS011;49105;46.046;10.760;2023-04-03T16:49:45;2.25;;;2.13;;
63018;SDS011;49105;46.046;10.760;2023-04-03T16:52:14;1.80;;;1.80;;
63018;SDS011;49105;46.046;10.760;2023-04-03T16:54:39;1.70;;;1.70;;
63018;SDS011;49105;46.046;10.760;2023-04-03T16:57:17;1.70;;;1.70;;
63018;SDS011;49105;46.046;10.760;2023-04-03T16:59:42;1.80;;;1.80;;
63018;SDS011;49105;46.046;10.760;2023-04-03T17:02:08;2.22;;;2.22;;
63018;SDS011;49105;46.046;10.760;2023-04-03T17:04:33;2.00;;;2.00;;
63018;SDS011;49105;46.046;10.760;2023-04-03T17:07:08;1.92;;;1.92;;
63018;SDS011;49105;46.046;10.760;2023-04-03T17:09:35;2.15;;;2.05;;
63018;SDS011;49105;46.046;10.760;2023-04-03T17:12:00;2.10;;;2.10;;
63018;SDS011;49105;46.046;10.760;2023-04-03T17:14:26;2.13;;;2.08;;
63018;SDS011;49105;46.046;10.760;2023-04-03T17:17:00;1.70;;;1.70;;
63018;SDS011;49105;46.046;10.760;2023-04-03T17:19:28;1.80;;;1.80;;
63018;SDS011;49105;46.046;10.760;2023-04-03T17:21:53;2.03;;;2.00;;
63018;SDS011;49105;46.046;10.760;2023-04-03T17:24:29;1.45;;;1.45;;